Time;durP1;ratioP1;P1;durP2;ratioP2;P2;SDS_P1;SDS_P2;PMS_P1;PMS_P2;Temp;Humidity;BMP_temperature;BMP_pressure;BME280_temperature;BME280_humidity;BME280_pressure;Samples;Min_cycle;Max_cycle;Signal;HPM_P1;HPM_P2
2022/07/15 00:02:05;;;;;;;5.03;1.58;;;16.20;99.90;;;;;;4975842;28;20077;-58
2022/07/15 00:04:32;;;;;;;3.38;1.40;;;16.00;99.90;;;;;;4974579;28;20038;-51
2022/07/15 00:06:57;;;;;;;5.22;1.20;;;16.00;99.90;;;;;;4975870;28;20038;-58
2022/07/15 00:10:13;;;;;;;3.95;1.15;;;16.00;99.90;;;;;;4975828;28;20058;-57
2022/07/15 00:12:09;;;;;;;3.17;1.20;;;15.90;99.90;;;;;;4975478;28;20034;-57
2022/07/15 00:14:35;;;;;;;3.92;1.48;;;16.00;99.90;;;;;;4975579;28;20391;-58
2022/07/15 00:17:01;;;;;;;5.53;1.38;;;15.90;99.90;;;;;;4975464;28;20030;-55
2022/07/15 00:19:27;;;;;;;4.65;1.85;;;15.80;99.90;;;;;;4974134;28;20142;-54
2022/07/15 00:21:53;;;;;;;3.15;1.40;;;15.80;99.90;;;;;;4975517;28;20073;-58
2022/07/15 00:24:18;;;;;;;2.00;1.20;;;15.90;99.90;;;;;;4975355;28;20027;-58
2022/07/15 00:26:44;;;;;;;3.30;1.30;;;15.90;99.90;;;;;;4975577;28;20489;-59
2022/07/15 00:29:10;;;;;;;1.50;0.95;;;15.80;99.90;;;;;;4975472;28;20062;-59
2022/07/15 00:31:36;;;;;;;6.13;1.30;;;15.90;99.90;;;;;;4975358;28;20478;-54
2022/07/15 00:34:02;;;;;;;2.72;1.10;;;15.80;99.90;;;;;;4975325;28;20073;-56
2022/07/15 00:36:28;;;;;;;2.63;1.58;;;15.80;99.90;;;;;;4974078;28;20019;-51
2022/07/15 00:38:53;;;;;;;4.22;1.33;;;15.70;99.90;;;;;;4973991;28;20030;-58
2022/07/15 00:41:19;;;;;;;4.13;1.27;;;15.80;99.90;;;;;;4973853;28;20070;-55
2022/07/15 00:43:44;;;;;;;1.90;1.20;;;15.80;99.90;;;;;;4973860;28;20034;-56
2022/07/15 00:46:14;;;;;;;3.38;1.30;;;15.80;99.90;;;;;;4975276;28;20022;-56
2022/07/15 00:48:39;;;;;;;3.58;1.30;;;15.80;99.90;;;;;;4973087;28;20045;-55
2022/07/15 00:51:05;;;;;;;4.13;1.20;;;15.80;99.90;;;;;;4974959;28;20034;-55
2022/07/15 00:53:33;;;;;;;1.70;1.08;;;15.80;99.90;;;;;;4974975;28;20023;-55
2022/07/15 00:56:01;;;;;;;4.72;1.48;;;15.70;99.90;;;;;;4973690;28;20501;-58
2022/07/15 00:58:29;;;;;;;4.28;1.92;;;15.70;99.90;;;;;;4973557;28;20030;-56
2022/07/15 01:00:58;;;;;;;5.05;1.10;;;15.60;99.90;;;;;;4974433;28;20458;-53
2022/07/15 01:03:27;;;;;;;6.43;1.20;;;15.60;99.90;;;;;;4973568;28;20029;-58
2022/07/15 01:05:56;;;;;;;3.47;1.20;;;15.50;99.90;;;;;;4973438;28;20073;-58
2022/07/15 01:08:21;;;;;;;1.63;1.00;;;15.50;99.90;;;;;;4973514;28;20043;-55
2022/07/15 01:10:49;;;;;;;3.67;1.23;;;15.50;99.90;;;;;;4973629;28;20023;-57
2022/07/15 01:13:15;;;;;;;3.13;1.50;;;15.50;99.90;;;;;;4974689;28;20453;-58
2022/07/15 01:15:41;;;;;;;2.38;1.25;;;15.40;99.90;;;;;;4974580;28;20030;-58
2022/07/15 01:18:07;;;;;;;2.58;1.23;;;15.30;99.90;;;;;;4973654;28;20395;-55
2022/07/15 01:20:33;;;;;;;1.92;1.27;;;15.30;99.90;;;;;;4973227;28;20027;-58
2022/07/15 01:23:00;;;;;;;1.52;1.25;;;15.20;99.90;;;;;;4974856;28;20050;-58
2022/07/15 01:25:30;;;;;;;7.50;1.30;;;15.20;99.90;;;;;;4973535;28;20035;-58
2022/07/15 01:27:55;;;;;;;5.32;1.25;;;15.10;99.90;;;;;;4974681;28;20073;-58
2022/07/15 01:30:21;;;;;;;5.22;1.00;;;15.30;99.90;;;;;;4974443;28;20027;-55
2022/07/15 01:32:47;;;;;;;1.73;1.40;;;15.30;99.90;;;;;;4973288;28;20030;-52
2022/07/15 01:35:12;;;;;;;2.88;1.25;;;15.40;99.90;;;;;;4974086;28;20050;-58
2022/07/15 01:37:38;;;;;;;1.42;1.20;;;15.30;99.90;;;;;;4974311;28;20034;-55
2022/07/15 01:40:05;;;;;;;2.28;1.02;;;15.40;99.90;;;;;;4974629;28;20381;-56
2022/07/15 01:42:32;;;;;;;1.90;1.20;;;15.30;99.90;;;;;;4974319;28;20393;-55
2022/07/15 01:44:57;;;;;;;1.85;1.20;;;15.30;99.90;;;;;;4974330;28;20537;-58
2022/07/15 01:47:23;;;;;;;2.75;1.30;;;15.20;99.90;;;;;;4973112;28;20117;-56
2022/07/15 01:49:49;;;;;;;2.15;1.20;;;15.30;99.90;;;;;;4973037;28;20050;-56
2022/07/15 01:52:14;;;;;;;3.08;1.33;;;15.30;99.90;;;;;;4973136;28;20038;-57
2022/07/15 01:54:40;;;;;;;5.72;1.95;;;15.20;99.90;;;;;;4972975;28;20034;-58
2022/07/15 01:57:06;;;;;;;3.78;1.23;;;15.20;99.90;;;;;;4974429;28;20082;-57
2022/07/15 01:59:32;;;;;;;2.00;1.20;;;15.00;99.90;;;;;;4975167;28;20015;-54
2022/07/15 02:01:57;;;;;;;3.50;1.10;;;14.90;99.90;;;;;;4978004;28;20023;-58
2022/07/15 02:04:23;;;;;;;2.38;1.40;;;14.80;99.90;;;;;;4976699;28;20034;-58
2022/07/15 02:06:49;;;;;;;2.95;1.20;;;14.80;99.90;;;;;;4977966;28;20030;-56
2022/07/15 02:09:15;;;;;;;3.70;1.73;;;14.80;99.90;;;;;;4977830;28;20028;-58
2022/07/15 02:11:41;;;;;;;3.95;1.27;;;14.70;99.90;;;;;;4976635;28;20047;-56
2022/07/15 02:14:07;;;;;;;2.28;1.20;;;14.70;99.90;;;;;;4977768;28;20051;-53
2022/07/15 02:16:33;;;;;;;2.10;1.20;;;14.60;99.90;;;;;;4976605;28;20054;-57
2022/07/15 02:19:00;;;;;;;2.25;1.40;;;14.60;99.90;;;;;;4976425;28;20038;-58
2022/07/15 02:21:26;;;;;;;5.32;1.35;;;14.70;99.90;;;;;;4976372;28;20037;-58
2022/07/15 02:23:53;;;;;;;4.35;1.63;;;14.60;99.90;;;;;;4977614;28;20037;-58
2022/07/15 02:26:19;;;;;;;1.98;1.23;;;14.60;99.90;;;;;;4976621;28;20027;-58
2022/07/15 02:28:45;;;;;;;2.22;1.33;;;14.70;99.90;;;;;;4977465;28;20557;-57
2022/07/15 02:31:11;;;;;;;5.10;1.50;;;14.70;99.90;;;;;;4976492;28;20030;-56
2022/07/15 02:33:38;;;;;;;3.20;1.30;;;14.70;99.90;;;;;;4977462;28;20370;-53
2022/07/15 02:36:04;;;;;;;2.85;1.63;;;14.80;99.90;;;;;;4977804;28;20059;-56
2022/07/15 02:38:29;;;;;;;2.13;1.20;;;14.70;99.90;;;;;;4976331;28;20109;-58
2022/07/15 02:40:55;;;;;;;2.38;1.55;;;14.60;99.90;;;;;;4977328;28;20022;-58
2022/07/15 02:43:21;;;;;;;1.67;1.17;;;14.60;99.90;;;;;;4976080;28;20018;-52
2022/07/15 02:45:47;;;;;;;3.63;1.55;;;14.60;99.90;;;;;;4976135;28;20019;-55
2022/07/15 02:48:15;;;;;;;5.32;1.50;;;14.70;99.90;;;;;;4977467;28;20030;-55
2022/07/15 02:50:40;;;;;;;4.13;1.40;;;14.80;99.90;;;;;;4977438;28;20556;-52
2022/07/15 02:53:06;;;;;;;3.95;1.85;;;14.80;99.90;;;;;;4975894;28;20066;-56
2022/07/15 02:55:32;;;;;;;1.73;1.10;;;14.70;99.90;;;;;;4975851;28;20037;-56
2022/07/15 02:57:58;;;;;;;1.67;1.10;;;14.70;99.90;;;;;;4975993;28;20054;-53
2022/07/15 03:00:23;;;;;;;3.45;1.52;;;14.70;99.90;;;;;;4976888;28;20053;-52
2022/07/15 03:02:50;;;;;;;3.28;1.55;;;14.80;99.90;;;;;;4977281;28;20083;-54
2022/07/15 03:05:17;;;;;;;2.80;2.00;;;14.80;99.90;;;;;;4977376;28;20098;-55
2022/07/15 03:07:43;;;;;;;4.30;1.67;;;14.80;99.90;;;;;;4975824;28;20043;-54
2022/07/15 03:10:09;;;;;;;3.15;1.70;;;14.90;99.90;;;;;;4975917;28;20450;-53
2022/07/15 03:12:35;;;;;;;3.25;1.73;;;14.80;99.90;;;;;;4976765;28;20029;-58
2022/07/15 03:15:19;;;;;;;3.95;2.47;;;14.70;99.90;;;;;;4976965;28;20026;-57
2022/07/15 03:17:45;;;;;;;1.83;1.50;;;14.70;99.90;;;;;;4976379;28;20061;-56
2022/07/15 03:20:11;;;;;;;2.85;1.42;;;14.70;99.90;;;;;;4975364;28;20058;-55
2022/07/15 03:22:37;;;;;;;2.58;1.58;;;14.80;99.90;;;;;;4975402;28;20511;-58
2022/07/15 03:25:02;;;;;;;2.95;1.30;;;14.80;99.90;;;;;;4975308;28;20030;-57
2022/07/15 03:27:28;;;;;;;4.35;1.67;;;14.90;99.90;;;;;;4975124;28;20085;-52
2022/07/15 03:29:54;;;;;;;3.17;2.22;;;14.90;99.90;;;;;;4976115;28;20050;-58
2022/07/15 03:32:20;;;;;;;4.60;2.08;;;15.00;99.90;;;;;;4975241;28;20059;-57
2022/07/15 03:34:46;;;;;;;4.65;1.80;;;15.10;99.90;;;;;;4975977;28;20061;-57
2022/07/15 03:37:12;;;;;;;2.53;1.40;;;15.00;99.90;;;;;;4976335;28;20058;-53
2022/07/15 03:39:38;;;;;;;8.15;3.55;;;15.00;99.90;;;;;;4975005;28;20073;-53
2022/07/15 03:42:03;;;;;;;12.63;5.88;;;15.00;99.90;;;;;;4974951;28;20127;-52
2022/07/15 03:44:29;;;;;;;13.05;2.30;;;15.00;99.90;;;;;;4976217;28;20109;-54
2022/07/15 03:46:55;;;;;;;3.20;1.45;;;15.00;99.90;;;;;;4974918;28;20037;-56
2022/07/15 03:49:20;;;;;;;3.05;1.70;;;15.00;99.90;;;;;;4976113;28;20050;-58
2022/07/15 03:51:47;;;;;;;3.90;1.50;;;15.00;99.90;;;;;;4975652;28;20062;-57
2022/07/15 03:54:13;;;;;;;3.80;1.65;;;15.00;99.90;;;;;;4976597;28;20050;-57
2022/07/15 03:56:38;;;;;;;2.10;1.70;;;15.10;99.90;;;;;;4976031;28;20062;-58
2022/07/15 03:59:04;;;;;;;4.88;1.40;;;15.20;99.90;;;;;;4975913;28;20027;-59
2022/07/15 04:01:30;;;;;;;2.58;1.48;;;15.30;99.90;;;;;;4975861;28;20073;-56
2022/07/15 04:03:56;;;;;;;3.47;2.08;;;15.30;99.90;;;;;;4975608;28;20485;-55
2022/07/15 04:06:22;;;;;;;2.70;1.50;;;15.60;99.90;;;;;;4975895;28;20027;-58
2022/07/15 04:08:49;;;;;;;8.05;1.58;;;15.70;99.90;;;;;;4976044;28;20042;-57
2022/07/15 04:11:15;;;;;;;1.75;1.20;;;16.00;99.90;;;;;;4974654;28;20405;-59
2022/07/15 04:13:42;;;;;;;4.22;1.65;;;16.10;99.90;;;;;;4974755;28;20026;-57
2022/07/15 04:16:08;;;;;;;6.32;1.60;;;16.30;99.90;;;;;;4975666;28;20112;-57
2022/07/15 04:18:34;;;;;;;2.50;1.35;;;16.30;99.90;;;;;;4974280;28;20030;-59
2022/07/15 04:21:01;;;;;;;1.40;1.20;;;16.40;99.90;;;;;;4974269;28;20027;-58
2022/07/15 04:23:26;;;;;;;2.67;1.30;;;16.40;99.90;;;;;;4975403;28;20037;-57
2022/07/15 04:25:52;;;;;;;1.48;1.20;;;16.40;99.90;;;;;;4974253;28;20019;-58
2022/07/15 04:28:22;;;;;;;5.43;1.65;;;16.50;99.90;;;;;;4974200;28;20030;-58
2022/07/15 04:30:49;;;;;;;2.65;1.30;;;16.40;99.90;;;;;;4974363;28;20034;-59
2022/07/15 04:33:15;;;;;;;2.15;1.45;;;16.50;99.90;;;;;;4974084;28;20118;-55
2022/07/15 04:35:41;;;;;;;1.63;1.25;;;16.60;99.90;;;;;;4975529;28;20509;-56
2022/07/15 04:38:07;;;;;;;3.55;1.45;;;16.70;99.90;;;;;;4975286;28;20027;-52
2022/07/15 04:40:32;;;;;;;4.75;1.50;;;16.60;99.90;;;;;;4975368;28;20478;-55
2022/07/15 04:42:59;;;;;;;4.05;1.60;;;16.60;99.90;;;;;;4975314;28;20106;-56
2022/07/15 04:45:25;;;;;;;1.58;1.25;;;16.80;99.90;;;;;;4975380;28;20015;-58
2022/07/15 04:47:51;;;;;;;5.43;2.03;;;16.90;99.90;;;;;;4973837;28;20027;-53
2022/07/15 04:53:01;;;;;;;11.00;4.95;;;17.30;99.90;;;;;;4975552;28;20044;-56
2022/07/15 04:55:26;;;;;;;10.07;4.65;;;17.40;99.90;;;;;;4974080;28;20031;-57
2022/07/15 04:57:53;;;;;;;10.07;4.55;;;17.50;99.90;;;;;;4974905;28;20023;-54
2022/07/15 05:00:19;;;;;;;10.50;4.53;;;17.60;99.90;;;;;;4973889;28;20077;-57
2022/07/15 05:02:44;;;;;;;5.88;3.08;;;17.60;99.90;;;;;;4973644;28;20019;-58
2022/07/15 05:05:10;;;;;;;6.00;2.17;;;17.60;99.90;;;;;;4974817;28;20019;-56
2022/07/15 05:07:36;;;;;;;4.15;2.67;;;17.50;99.90;;;;;;4974897;28;20077;-53
2022/07/15 05:10:06;;;;;;;10.00;2.60;;;17.30;99.90;;;;;;4974746;28;20071;-58
2022/07/15 05:12:31;;;;;;;7.82;2.00;;;17.40;99.90;;;;;;4974230;28;20027;-58
2022/07/15 05:14:57;;;;;;;3.45;1.85;;;17.40;99.90;;;;;;4974678;28;20031;-58
2022/07/15 05:17:23;;;;;;;3.78;2.03;;;17.60;99.90;;;;;;4973349;28;20026;-58
2022/07/15 05:19:48;;;;;;;7.75;2.05;;;17.80;99.90;;;;;;4973330;28;20045;-59
2022/07/15 05:22:16;;;;;;;2.85;1.58;;;17.90;99.90;;;;;;4973422;28;20074;-58
2022/07/15 05:24:42;;;;;;;6.63;1.90;;;18.00;99.90;;;;;;4974909;28;20019;-58
2022/07/15 05:27:07;;;;;;;4.15;1.92;;;18.20;99.90;;;;;;4973629;28;20049;-56
2022/07/15 05:29:33;;;;;;;2.70;1.90;;;18.20;99.90;;;;;;4974730;28;20027;-57
2022/07/15 05:31:58;;;;;;;7.80;1.70;;;18.30;99.90;;;;;;4973270;28;20086;-59
2022/07/15 05:34:24;;;;;;;3.88;1.90;;;18.30;99.90;;;;;;4978094;28;20026;-58
2022/07/15 05:36:50;;;;;;;2.85;1.55;;;18.40;99.90;;;;;;4980923;28;20027;-59
2022/07/15 05:39:15;;;;;;;5.72;1.65;;;18.40;99.90;;;;;;4980825;28;20058;-54
2022/07/15 05:41:41;;;;;;;6.85;1.60;;;18.30;99.90;;;;;;4980895;28;20541;-55
2022/07/15 05:44:07;;;;;;;6.68;1.90;;;18.10;99.90;;;;;;4980053;28;20023;-58
2022/07/15 05:46:32;;;;;;;3.05;2.05;;;18.20;99.90;;;;;;4980502;28;20450;-55
2022/07/15 05:48:58;;;;;;;2.70;1.65;;;18.40;99.90;;;;;;4980184;28;20466;-55
2022/07/15 05:51:23;;;;;;;5.28;1.90;;;18.40;99.90;;;;;;4979541;28;20023;-56
2022/07/15 05:53:49;;;;;;;5.25;1.70;;;18.10;99.90;;;;;;4979511;28;20023;-57
2022/07/15 05:56:15;;;;;;;12.15;2.17;;;18.10;99.90;;;;;;4980781;28;20023;-57
2022/07/15 05:58:40;;;;;;;3.75;2.00;;;17.90;99.90;;;;;;4980647;28;20050;-57
2022/07/15 06:01:06;;;;;;;4.78;1.90;;;18.00;99.90;;;;;;4979491;28;20034;-57
2022/07/15 06:03:32;;;;;;;6.68;1.80;;;18.10;99.90;;;;;;4980774;28;20029;-57
2022/07/15 06:05:58;;;;;;;4.53;1.88;;;18.30;99.90;;;;;;4979619;28;20389;-58
2022/07/15 06:08:23;;;;;;;4.82;1.90;;;18.60;99.90;;;;;;4980739;28;20027;-55
2022/07/15 06:10:50;;;;;;;14.90;2.63;;;18.70;99.90;;;;;;4979627;28;20055;-55
2022/07/15 06:13:16;;;;;;;6.68;2.17;;;18.80;99.90;;;;;;4980839;28;20034;-57
2022/07/15 06:15:50;;;;;;;4.65;1.67;;;18.80;99.90;;;;;;4980671;28;20042;-57
2022/07/15 06:18:16;;;;;;;6.60;2.00;;;19.00;99.90;;;;;;4980331;28;20031;-60
2022/07/15 06:20:42;;;;;;;7.55;1.40;;;19.20;99.90;;;;;;4980466;28;20486;-57
2022/07/15 06:23:08;;;;;;;10.05;1.65;;;19.30;99.90;;;;;;4980501;28;20050;-57
2022/07/15 06:25:33;;;;;;;5.88;1.75;;;19.40;99.90;;;;;;4980491;28;20073;-57
2022/07/15 06:27:59;;;;;;;4.03;1.63;;;19.30;99.90;;;;;;4979266;28;20022;-57
2022/07/15 06:30:24;;;;;;;3.55;1.77;;;19.00;99.90;;;;;;4979393;28;20494;-58
2022/07/15 06:32:50;;;;;;;3.70;1.73;;;19.20;99.90;;;;;;4979223;28;20027;-57
2022/07/15 06:35:15;;;;;;;6.50;1.77;;;19.40;99.90;;;;;;4980508;28;20031;-57
2022/07/15 06:37:41;;;;;;;6.35;1.75;;;19.50;99.90;;;;;;4980629;28;20038;-51
2022/07/15 06:40:07;;;;;;;6.47;1.92;;;19.50;99.90;;;;;;4979361;28;20023;-54
2022/07/15 06:42:33;;;;;;;5.82;1.67;;;19.70;99.90;;;;;;4979436;28;20058;-58
2022/07/15 06:44:59;;;;;;;10.75;1.50;;;19.80;99.90;;;;;;4977385;28;20057;-58
2022/07/15 06:48:16;;;;;;;7.28;1.50;;;19.80;99.90;;;;;;4977166;28;20062;-58
2022/07/15 06:50:42;;;;;;;8.05;1.77;;;20.10;99.90;;;;;;4977484;28;20037;-59
2022/07/15 06:53:08;;;;;;;9.30;1.75;;;20.40;99.90;;;;;;4976463;28;20070;-47
2022/07/15 06:55:33;;;;;;;2.53;1.55;;;20.80;99.90;;;;;;4977267;28;20030;-48
2022/07/15 06:57:59;;;;;;;3.95;1.65;;;21.10;99.90;;;;;;4976997;28;20023;-51
2022/07/15 07:00:25;;;;;;;6.63;1.52;;;21.50;99.90;;;;;;4977072;28;20082;-50
2022/07/15 07:02:50;;;;;;;4.25;1.70;;;21.90;99.90;;;;;;4975752;28;20025;-49
2022/07/15 07:05:16;;;;;;;3.75;1.50;;;22.20;99.90;;;;;;4975978;28;20027;-48
2022/07/15 07:07:42;;;;;;;3.47;1.38;;;22.60;99.90;;;;;;4975713;28;20039;-48
2022/07/15 07:10:08;;;;;;;3.42;1.30;;;22.80;99.90;;;;;;4976032;28;20031;-52
2022/07/15 07:12:37;;;;;;;3.92;1.73;;;23.10;99.90;;;;;;4975704;28;20489;-51
2022/07/15 07:15:04;;;;;;;3.38;1.48;;;23.50;99.90;;;;;;4975671;28;20473;-55
2022/07/15 07:17:29;;;;;;;5.28;1.38;;;24.10;99.90;;;;;;4975421;28;20031;-50
2022/07/15 07:19:55;;;;;;;4.47;1.80;;;24.80;99.90;;;;;;4976328;28;20023;-53
2022/07/15 07:22:21;;;;;;;1.25;1.10;;;25.40;99.90;;;;;;4976733;28;20081;-50
2022/07/15 07:24:47;;;;;;;5.82;1.45;;;25.90;99.90;;;;;;4976334;28;20110;-49
2022/07/15 07:27:13;;;;;;;2.83;1.95;;;27.00;99.90;;;;;;4975469;28;20516;-52
2022/07/15 07:29:39;;;;;;;6.15;1.70;;;28.20;98.50;;;;;;4975562;28;20030;-52
2022/07/15 07:32:04;;;;;;;4.40;1.55;;;28.30;94.90;;;;;;4976537;28;20027;-52
2022/07/15 07:34:30;;;;;;;7.35;1.58;;;29.40;93.70;;;;;;4975262;28;20023;-52
2022/07/15 07:36:56;;;;;;;5.55;1.52;;;30.40;91.70;;;;;;4976375;28;20031;-52
2022/07/15 07:39:21;;;;;;;5.47;1.70;;;31.40;87.00;;;;;;4975139;28;20019;-52
2022/07/15 07:41:49;;;;;;;5.85;1.33;;;31.20;82.00;;;;;;4976441;28;20077;-54
2022/07/15 07:44:15;;;;;;;5.60;1.42;;;30.00;84.70;;;;;;4976622;28;20046;-49
2022/07/15 07:46:40;;;;;;;5.05;1.35;;;28.60;85.20;;;;;;4976213;28;20065;-52
2022/07/15 07:49:06;;;;;;;3.92;1.10;;;28.30;87.20;;;;;;4974963;28;20027;-50
2022/07/15 07:51:31;;;;;;;4.05;1.30;;;28.60;89.00;;;;;;4976089;28;20026;-55
2022/07/15 07:53:58;;;;;;;4.43;1.52;;;29.00;88.80;;;;;;4975269;28;20046;-52
2022/07/15 07:56:23;;;;;;;3.97;1.70;;;29.50;84.70;;;;;;4975769;28;20502;-53
2022/07/15 07:58:50;;;;;;;3.55;1.58;;;29.90;85.60;;;;;;4974761;28;20019;-54
2022/07/15 08:01:17;;;;;;;4.13;1.40;;;30.50;84.60;;;;;;4975981;28;20138;-53
2022/07/15 08:03:42;;;;;;;6.13;1.55;;;31.10;80.00;;;;;;4974797;28;20023;-51
2022/07/15 08:06:08;;;;;;;8.02;2.00;;;31.20;76.90;;;;;;4974974;28;20489;-50
2022/07/15 08:08:34;;;;;;;7.85;2.28;;;30.30;75.80;;;;;;4974640;28;20038;-55
2022/07/15 08:10:59;;;;;;;5.32;1.40;;;29.80;78.60;;;;;;4974574;28;20070;-53
2022/07/15 08:13:28;;;;;;;3.70;1.70;;;31.00;77.90;;;;;;4974513;28;20027;-53
2022/07/15 08:15:56;;;;;;;4.20;1.52;;;31.50;76.50;;;;;;4975752;28;20027;-54
2022/07/15 08:18:21;;;;;;;4.28;1.42;;;32.30;74.90;;;;;;4974458;28;20031;-53
2022/07/15 08:20:47;;;;;;;3.85;1.73;;;33.50;71.10;;;;;;4975492;28;20023;-53
2022/07/15 08:23:14;;;;;;;6.43;1.75;;;34.20;69.30;;;;;;4975659;28;20026;-50
2022/07/15 08:25:39;;;;;;;5.15;1.73;;;35.40;67.00;;;;;;4974332;28;20022;-51
2022/07/15 08:28:06;;;;;;;5.20;1.70;;;35.20;64.30;;;;;;4975361;28;20089;-50
2022/07/15 08:30:33;;;;;;;3.35;1.63;;;35.50;64.50;;;;;;4974038;28;20023;-52
2022/07/15 08:33:00;;;;;;;5.82;1.50;;;36.10;62.00;;;;;;4975022;28;20089;-50
2022/07/15 08:35:26;;;;;;;4.47;1.67;;;36.90;60.70;;;;;;4974017;28;20039;-52
2022/07/15 08:37:52;;;;;;;2.65;1.65;;;37.00;60.00;;;;;;4973972;28;20061;-52
2022/07/15 08:40:18;;;;;;;4.28;1.55;;;36.90;57.60;;;;;;4975516;28;20023;-53
2022/07/15 08:42:46;;;;;;;3.42;1.48;;;36.90;57.70;;;;;;4973884;28;20050;-52
2022/07/15 08:45:13;;;;;;;4.93;1.30;;;37.30;56.80;;;;;;4974187;28;20027;-49
2022/07/15 08:47:41;;;;;;;4.50;1.70;;;36.80;55.80;;;;;;4973907;28;20031;-51
2022/07/15 08:50:11;;;;;;;3.38;1.27;;;37.20;57.00;;;;;;4973980;28;20444;-50
2022/07/15 08:52:37;;;;;;;5.30;1.60;;;37.90;55.20;;;;;;4975002;28;20038;-52
2022/07/15 08:55:04;;;;;;;5.20;1.80;;;38.50;55.50;;;;;;4973728;28;20034;-49
2022/07/15 08:57:29;;;;;;;3.25;1.50;;;37.80;54.30;;;;;;4973471;28;20058;-51
2022/07/15 08:59:55;;;;;;;4.20;1.60;;;36.50;53.90;;;;;;4973586;28;20127;-50
2022/07/15 09:02:21;;;;;;;3.25;1.38;;;35.30;55.70;;;;;;4974834;28;20026;-50
2022/07/15 09:05:18;;;;;;;6.72;1.50;;;34.60;57.20;;;;;;4974732;28;20023;-50
2022/07/15 09:07:57;;;;;;;3.20;1.45;;;34.10;58.00;;;;;;4974621;28;20121;-48
2022/07/15 09:10:46;;;;;;;6.80;1.52;;;33.90;58.40;;;;;;4973294;28;20094;-54
2022/07/15 09:13:30;;;;;;;2.35;1.35;;;33.60;58.50;;;;;;4973048;28;20055;-51
2022/07/15 09:15:59;;;;;;;2.70;1.38;;;33.10;58.40;;;;;;4974734;28;20098;-50
2022/07/15 09:18:28;;;;;;;4.13;1.40;;;32.30;59.20;;;;;;4974549;28;20023;-50
2022/07/15 09:20:54;;;;;;;5.20;1.92;;;32.70;56.80;;;;;;4973270;28;20023;-50
2022/07/15 09:23:31;;;;;;;3.78;2.35;;;34.10;55.80;;;;;;4973555;28;20078;-52
2022/07/15 09:26:36;;;;;;;3.20;2.50;;;34.30;54.50;;;;;;4973584;28;20034;-53
2022/07/15 09:33:34;;;;;;;14.10;3.25;;;34.90;52.80;;;;;;4974583;28;20034;-49
2022/07/15 09:35:00;;;;;;;3.10;2.17;;;36.90;52.40;;;;;;4974615;28;20076;-48
2022/07/15 09:37:26;;;;;;;5.18;2.53;;;37.60;51.40;;;;;;4973459;28;20034;-48
2022/07/15 09:39:57;;;;;;;3.25;1.98;;;38.60;49.70;;;;;;4973293;28;20027;-50
2022/07/15 09:42:23;;;;;;;4.72;2.20;;;39.30;48.20;;;;;;4973399;28;20031;-49
2022/07/15 09:44:50;;;;;;;5.60;2.10;;;39.90;47.70;;;;;;4972968;28;20540;-49
2022/07/15 09:47:18;;;;;;;3.92;2.08;;;38.60;47.00;;;;;;4974385;28;20026;-53
2022/07/15 09:49:47;;;;;;;2.67;1.80;;;36.80;48.90;;;;;;4973171;28;20118;-54
2022/07/15 09:52:14;;;;;;;2.38;1.73;;;35.40;50.20;;;;;;4973141;28;20022;-50
2022/07/15 09:54:41;;;;;;;4.38;1.80;;;33.90;51.10;;;;;;4973218;28;20023;-48
2022/07/15 09:57:14;;;;;;;2.25;1.77;;;32.40;53.40;;;;;;4973338;28;20031;-51
2022/07/15 09:59:40;;;;;;;2.63;1.55;;;31.50;55.80;;;;;;4974183;28;20027;-51
2022/07/15 10:02:05;;;;;;;7.90;2.05;;;30.70;54.70;;;;;;4973279;28;20035;-55
2022/07/15 10:04:34;;;;;;;3.75;1.67;;;30.00;55.00;;;;;;4974125;28;20030;-55
2022/07/15 10:07:02;;;;;;;2.85;1.60;;;29.60;55.70;;;;;;4974066;28;20031;-55
2022/07/15 10:09:30;;;;;;;2.15;1.48;;;29.50;56.00;;;;;;4973990;28;20031;-49
2022/07/15 10:12:18;;;;;;;4.38;1.70;;;29.60;56.30;;;;;;4974117;28;20026;-52
2022/07/15 10:15:03;;;;;;;3.67;1.85;;;30.70;57.10;;;;;;4972862;28;20035;-52
2022/07/15 10:18:09;;;;;;;1.75;1.20;;;31.90;56.10;;;;;;4973301;28;20105;-54
2022/07/15 10:24:53;;;;;;;2.60;1.48;;;31.80;53.00;;;;;;4977963;28;20505;-61
2022/07/15 10:27:31;;;;;;;2.05;1.38;;;31.10;55.00;;;;;;4958236;28;20102;-60
2022/07/15 10:30:03;;;;;;;2.95;1.08;;;30.70;56.40;;;;;;4957342;28;20027;-61
2022/07/15 10:32:28;;;;;;;6.45;1.63;;;30.20;56.10;;;;;;4956917;28;20058;-60
2022/07/15 10:34:54;;;;;;;2.90;1.42;;;29.70;54.60;;;;;;4972908;28;20102;-61
2022/07/15 10:37:19;;;;;;;5.40;1.20;;;28.30;56.30;;;;;;4957950;28;20070;-57
2022/07/15 10:40:07;;;;;;;6.13;1.20;;;28.00;57.00;;;;;;4972814;28;20024;-61
2022/07/15 10:42:57;;;;;;;4.05;1.23;;;28.00;58.60;;;;;;4963262;28;20580;-64
2022/07/15 10:45:23;;;;;;;6.75;1.23;;;27.40;58.80;;;;;;4973423;28;20031;-59
2022/07/15 10:48:25;;;;;;;1.92;1.05;;;27.90;58.10;;;;;;4976169;28;20090;-59
2022/07/15 10:50:50;;;;;;;2.95;1.20;;;27.40;57.70;;;;;;4977044;28;20027;-62
2022/07/15 10:53:45;;;;;;;2.05;0.95;;;27.90;57.80;;;;;;4976421;28;20027;-63
2022/07/15 10:56:48;;;;;;;1.42;1.00;;;27.90;57.90;;;;;;4975854;28;20508;-63
2022/07/15 10:59:23;;;;;;;3.95;1.05;;;28.10;57.50;;;;;;4977820;28;20065;-57
2022/07/15 11:02:00;;;;;;;2.65;1.08;;;28.20;57.40;;;;;;4988217;28;20059;-63
2022/07/15 11:04:28;;;;;;;2.30;0.90;;;28.30;58.00;;;;;;4957585;28;20045;-63
2022/07/15 11:09:51;;;;;;;3.00;0.95;;;28.50;57.60;;;;;;4957487;28;20031;-63
2022/07/15 11:12:59;;;;;;;2.17;1.30;;;28.60;57.20;;;;;;4957334;28;20031;-61
2022/07/15 11:15:25;;;;;;;1.42;1.10;;;28.80;56.30;;;;;;4956243;28;20025;-60
2022/07/15 11:17:54;;;;;;;2.35;1.00;;;28.90;55.80;;;;;;4956005;28;20117;-63
2022/07/15 11:20:26;;;;;;;1.77;0.93;;;28.50;54.40;;;;;;4960612;28;20050;-62
2022/07/15 11:22:55;;;;;;;5.43;1.20;;;27.60;57.40;;;;;;4975648;28;20057;-61
2022/07/15 11:25:40;;;;;;;6.88;1.63;;;27.00;59.80;;;;;;4976758;28;20370;-60
2022/07/15 11:28:10;;;;;;;2.40;1.08;;;27.20;56.30;;;;;;4976574;28;20054;-62
2022/07/15 11:30:40;;;;;;;5.07;0.98;;;26.70;57.80;;;;;;4975337;28;20023;-61
2022/07/15 11:33:12;;;;;;;1.70;1.13;;;26.90;61.40;;;;;;4974757;28;20078;-63
2022/07/15 11:35:52;;;;;;;1.60;0.77;;;26.90;59.90;;;;;;4975135;28;20031;-63
2022/07/15 11:38:22;;;;;;;3.67;1.10;;;27.30;58.00;;;;;;4975108;28;20038;-62
2022/07/15 11:46:22;;;;;;;1.88;1.02;;;27.40;57.80;;;;;;4976452;28;20509;-59
2022/07/15 11:52:22;;;;;;;3.20;1.23;;;25.40;60.40;;;;;;4975967;28;20037;-60
2022/07/15 11:55:05;;;;;;;4.35;1.50;;;25.60;59.50;;;;;;4974744;28;20035;-61
2022/07/15 11:57:34;;;;;;;5.70;1.38;;;25.90;59.90;;;;;;4976049;28;20030;-61
2022/07/15 12:00:00;;;;;;;8.35;1.45;;;26.30;59.20;;;;;;4974290;28;20023;-60
2022/07/15 12:02:28;;;;;;;1.52;0.80;;;26.50;59.30;;;;;;4956636;28;20020;-59
2022/07/15 12:05:08;;;;;;;2.83;0.80;;;26.80;58.60;;;;;;4955726;28;20031;-61
2022/07/15 12:07:45;;;;;;;5.57;1.77;;;27.00;59.60;;;;;;4956486;28;20035;-61
2022/07/15 12:10:12;;;;;;;3.72;1.23;;;27.10;60.90;;;;;;4958677;28;20052;-61
2022/07/15 12:12:53;;;;;;;3.92;1.30;;;27.00;58.90;;;;;;4975804;28;20097;-61
2022/07/15 12:15:19;;;;;;;2.67;0.97;;;27.10;59.70;;;;;;4975633;28;20030;-61
2022/07/15 12:17:46;;;;;;;2.22;0.90;;;27.10;60.10;;;;;;4974464;28;20054;-58
2022/07/15 12:20:11;;;;;;;4.15;1.13;;;27.00;59.80;;;;;;4974345;28;20018;-61
2022/07/15 12:22:37;;;;;;;1.85;1.30;;;27.10;59.20;;;;;;4974203;28;20030;-60
2022/07/15 12:25:04;;;;;;;4.43;2.05;;;26.70;57.80;;;;;;4975502;28;20046;-61
2022/07/15 12:27:36;;;;;;;2.63;1.00;;;26.30;61.60;;;;;;4975336;28;20031;-61
2022/07/15 12:30:05;;;;;;;2.13;1.20;;;26.40;62.00;;;;;;4973060;28;20080;-64
2022/07/15 12:32:31;;;;;;;4.97;1.45;;;26.40;59.20;;;;;;4974293;28;20069;-54
2022/07/15 12:35:02;;;;;;;2.45;1.15;;;26.40;59.40;;;;;;4975222;28;20026;-59
2022/07/15 12:37:48;;;;;;;3.08;1.38;;;26.40;59.20;;;;;;4974135;28;20035;-58
2022/07/15 12:40:21;;;;;;;2.65;1.00;;;26.40;59.00;;;;;;4971625;28;20022;-62
2022/07/15 12:42:49;;;;;;;4.35;1.20;;;26.40;60.90;;;;;;4955301;28;20023;-62
2022/07/15 12:45:23;;;;;;;1.65;0.90;;;26.40;59.90;;;;;;4955565;28;20475;-64
2022/07/15 12:48:09;;;;;;;3.70;1.40;;;26.40;59.40;;;;;;4955068;28;20027;-63
2022/07/15 12:50:49;;;;;;;3.55;1.55;;;26.50;59.20;;;;;;4961484;28;20520;-64
2022/07/15 12:53:16;;;;;;;4.60;1.65;;;26.60;60.30;;;;;;4973904;28;20438;-63
2022/07/15 12:59:04;;;;;;;1.63;1.13;;;26.60;60.50;;;;;;4967895;28;20037;-63
2022/07/15 13:01:30;;;;;;;1.52;1.10;;;26.70;59.20;;;;;;4955573;28;20027;-65
2022/07/15 13:03:56;;;;;;;3.03;0.88;;;26.70;59.40;;;;;;4954587;28;20490;-63
2022/07/15 13:06:21;;;;;;;2.55;1.25;;;26.60;58.70;;;;;;4966140;28;20065;-63
2022/07/15 13:08:47;;;;;;;5.43;1.40;;;26.30;59.50;;;;;;4973940;28;20061;-64
2022/07/15 13:11:13;;;;;;;6.32;1.30;;;26.20;59.10;;;;;;4964455;28;20039;-65
2022/07/15 13:13:40;;;;;;;2.65;0.90;;;26.10;60.40;;;;;;4973251;28;20062;-63
2022/07/15 13:16:06;;;;;;;4.63;1.23;;;25.90;58.80;;;;;;4983329;28;20485;-62
2022/07/15 13:18:33;;;;;;;2.25;1.17;;;25.60;57.90;;;;;;4994092;28;20031;-62